Time;durP1;ratioP1;P1;durP2;ratioP2;P2;SDS_P1;SDS_P2;PMS_P1;PMS_P2;Temp;Humidity;BMP_temperature;BMP_pressure;BME280_temperature;BME280_humidity;BME280_pressure;Samples;Min_cycle;Max_cycle;Signal;HPM_P1;HPM_P2
2021/12/19 00:02:12;;;;;;;31.92;20.15;;;;;;;4.85;82.71;102232.72;5014813;28;20408;-78
2021/12/19 00:09:53;;;;;;;30.70;19.35;;;;;;;4.79;82.96;102232.53;5017604;28;20402;-78
2021/12/19 00:12:18;;;;;;;34.92;20.77;;;;;;;4.84;82.93;102236.41;5026970;28;20401;-78
2021/12/19 00:14:43;;;;;;;34.50;21.90;;;;;;;4.84;82.86;102232.91;5021950;28;20415;-78
2021/12/19 00:17:09;;;;;;;32.97;21.40;;;;;;;4.91;82.87;102223.16;5014266;28;20436;-78
2021/12/19 00:19:34;;;;;;;34.40;21.97;;;;;;;4.74;82.89;102225.00;5014744;28;20427;-78
2021/12/19 00:21:59;;;;;;;35.10;21.47;;;;;;;4.77;82.95;102211.22;5027744;28;20393;-78
2021/12/19 00:24:25;;;;;;;31.93;20.33;;;;;;;4.82;82.97;102210.72;5020250;28;20402;-78
2021/12/19 00:26:51;;;;;;;32.67;20.23;;;;;;;4.89;82.63;102211.75;5020306;28;20399;-79
2021/12/19 00:29:16;;;;;;;28.77;19.55;;;;;;;4.85;82.54;102202.31;5030181;28;20753;-78
2021/12/19 00:31:45;;;;;;;30.63;18.75;;;;;;;4.88;82.61;102202.84;5015703;28;20405;-79
2021/12/19 00:34:11;;;;;;;27.70;18.33;;;;;;;4.90;82.18;102195.47;5019505;28;20456;-79
2021/12/19 00:36:36;;;;;;;28.40;18.47;;;;;;;4.92;82.23;102204.19;5020860;28;20389;-78
2021/12/19 00:39:03;;;;;;;27.47;18.60;;;;;;;4.86;82.64;102204.88;5013851;28;20412;-78
2021/12/19 00:41:29;;;;;;;34.47;19.92;;;;;;;4.70;82.94;102200.31;5022582;28;20417;-79
2021/12/19 00:43:56;;;;;;;32.30;19.53;;;;;;;4.82;83.21;102200.81;5013130;28;20439;-78
2021/12/19 00:46:23;;;;;;;31.08;19.45;;;;;;;4.83;82.56;102191.75;5024919;28;20415;-79
2021/12/19 00:48:52;;;;;;;32.53;19.88;;;;;;;4.88;82.54;102199.31;5032603;28;20910;-78
2021/12/19 00:51:22;;;;;;;30.45;18.92;;;;;;;4.89;82.83;102192.94;5014961;28;20416;-78
2021/12/19 00:53:48;;;;;;;31.23;19.75;;;;;;;4.89;82.91;102193.78;5028096;28;20421;-78
2021/12/19 00:56:13;;;;;;;31.67;20.27;;;;;;;4.84;82.69;102185.38;5025005;28;20461;-78
2021/12/19 00:58:39;;;;;;;30.17;19.93;;;;;;;4.81;83.07;102191.06;5028192;28;20430;-79
2021/12/19 01:01:07;;;;;;;29.83;19.60;;;;;;;4.86;82.71;102186.06;5010890;28;20420;-78
2021/12/19 01:03:33;;;;;;;32.63;19.80;;;;;;;4.91;82.35;102183.69;5020773;28;20391;-79
2021/12/19 01:05:58;;;;;;;34.58;20.90;;;;;;;4.89;82.46;102183.03;5021276;28;20385;-78
2021/12/19 01:08:24;;;;;;;32.63;19.95;;;;;;;4.69;82.90;102182.50;5028237;28;20395;-79
2021/12/19 01:10:49;;;;;;;31.85;20.35;;;;;;;4.68;83.37;102172.75;5012504;28;20675;-78
2021/12/19 01:13:16;;;;;;;31.90;20.03;;;;;;;4.81;83.29;102174.97;5028153;28;20404;-79
2021/12/19 01:15:42;;;;;;;35.67;21.58;;;;;;;4.85;83.00;102173.63;5023777;28;21028;-79
2021/12/19 01:18:08;;;;;;;32.22;20.05;;;;;;;4.80;82.97;102167.94;5018253;28;20792;-79
2021/12/19 01:20:36;;;;;;;30.10;19.27;;;;;;;4.79;83.28;102165.38;5028379;28;20418;-78
2021/12/19 01:23:02;;;;;;;29.03;19.33;;;;;;;4.85;82.67;102170.94;5025699;28;20401;-79
2021/12/19 01:25:28;;;;;;;31.73;20.42;;;;;;;4.88;82.74;102169.75;5022375;28;20393;-79
2021/12/19 01:27:57;;;;;;;32.08;19.60;;;;;;;4.90;82.27;102163.25;5012800;28;20441;-79
2021/12/19 01:30:22;;;;;;;31.38;19.95;;;;;;;4.87;82.65;102171.63;5027119;28;20407;-78
2021/12/19 01:32:47;;;;;;;33.30;20.07;;;;;;;4.74;82.98;102165.06;5030501;28;20803;-78
2021/12/19 01:35:15;;;;;;;34.03;20.80;;;;;;;4.83;82.97;102166.75;5012597;28;20396;-78
2021/12/19 01:37:41;;;;;;;31.90;20.98;;;;;;;4.85;82.70;102168.25;5025783;28;20399;-79
2021/12/19 01:40:11;;;;;;;35.40;20.37;;;;;;;4.88;82.61;102169.75;5014206;28;20432;-79
2021/12/19 01:42:43;;;;;;;30.52;19.02;;;;;;;4.81;82.80;102171.47;5015395;28;20459;-79
2021/12/19 01:45:13;;;;;;;31.17;20.20;;;;;;;4.73;83.11;102177.66;5011219;28;20457;-79
2021/12/19 01:47:39;;;;;;;31.40;20.35;;;;;;;4.68;83.06;102171.91;5027126;28;20449;-79
2021/12/19 01:50:06;;;;;;;36.03;21.67;;;;;;;4.60;83.75;102167.38;5016718;28;20411;-79
2021/12/19 01:52:32;;;;;;;32.50;19.98;;;;;;;4.67;83.69;102168.41;5011508;28;20409;-79
2021/12/19 01:54:57;;;;;;;32.10;20.47;;;;;;;4.71;83.48;102166.22;5022386;28;20874;-79
2021/12/19 01:57:25;;;;;;;35.38;20.65;;;;;;;4.77;83.40;102162.03;5018606;28;20400;-79
2021/12/19 01:59:51;;;;;;;33.78;19.85;;;;;;;4.84;83.11;102169.25;5012749;28;20526;-79
2021/12/19 02:02:17;;;;;;;32.72;20.80;;;;;;;4.72;83.44;102174.13;5022579;28;20432;-79
2021/12/19 02:04:43;;;;;;;33.90;21.07;;;;;;;4.76;83.40;102171.09;5021140;28;20878;-79
2021/12/19 02:07:10;;;;;;;34.55;20.65;;;;;;;4.74;83.31;102160.53;5012866;28;20959;-78
2021/12/19 02:09:35;;;;;;;38.20;21.42;;;;;;;4.76;83.09;102158.50;5013353;28;20405;-79
2021/12/19 02:12:03;;;;;;;36.17;21.27;;;;;;;4.75;83.41;102154.13;5016164;28;20404;-79
2021/12/19 02:14:28;;;;;;;34.75;21.10;;;;;;;4.79;83.30;102160.03;5020991;28;20402;-78
2021/12/19 02:16:53;;;;;;;33.57;19.57;;;;;;;4.79;83.14;102162.69;5019161;28;20740;-79
2021/12/19 02:19:19;;;;;;;34.40;20.43;;;;;;;4.68;83.41;102167.38;5012177;28;20842;-79
2021/12/19 02:21:44;;;;;;;33.53;20.13;;;;;;;4.74;83.63;102159.69;5018824;28;20405;-79
2021/12/19 02:24:11;;;;;;;35.43;20.90;;;;;;;4.79;83.22;102154.66;5019633;28;20925;-79
2021/12/19 02:26:39;;;;;;;33.35;20.70;;;;;;;4.71;83.33;102150.94;5029345;28;20409;-79
2021/12/19 02:29:04;;;;;;;33.50;19.92;;;;;;;4.70;83.24;102151.97;5018387;28;20389;-79
2021/12/19 02:31:30;;;;;;;34.97;20.60;;;;;;;4.60;83.88;102142.38;5010393;28;20472;-79
2021/12/19 02:36:39;;;;;;;32.50;19.53;;;;;;;4.55;83.92;102155.44;5013265;28;20782;-79
2021/12/19 02:50:17;;;;;;;38.20;21.80;;;;;;;4.64;84.46;102136.50;5022029;28;20466;-79
2021/12/19 02:52:43;;;;;;;38.53;20.77;;;;;;;4.74;83.96;102133.69;5021406;28;20415;-78
2021/12/19 02:55:08;;;;;;;33.83;21.58;;;;;;;4.80;83.33;102133.00;5012752;28;20424;-79
2021/12/19 02:57:35;;;;;;;38.38;21.65;;;;;;;4.77;83.78;102133.34;5026405;28;20393;-79
2021/12/19 03:00:00;;;;;;;34.75;21.77;;;;;;;4.79;83.69;102131.31;5018987;28;20415;-79
2021/12/19 03:02:26;;;;;;;34.90;20.67;;;;;;;4.84;83.42;102131.63;5018503;28;20484;-79
2021/12/19 03:04:56;;;;;;;34.67;21.27;;;;;;;4.80;83.26;102126.78;5015138;28;20400;-79
2021/12/19 03:07:24;;;;;;;35.50;21.98;;;;;;;4.76;83.52;102126.28;5027227;28;20415;-79
2021/12/19 03:18:11;;;;;;;37.30;22.40;;;;;;;4.72;84.13;102119.56;5023647;28;20428;-79
2021/12/19 03:20:38;;;;;;;36.93;20.63;;;;;;;4.80;83.93;102116.03;5027619;28;20969;-79
2021/12/19 03:23:05;;;;;;;28.58;18.05;;;;;;;4.84;83.35;102110.16;5015346;28;20397;-79
2021/12/19 03:25:33;;;;;;;29.77;18.15;;;;;;;4.86;82.95;102105.47;5024033;28;20442;-79
2021/12/19 03:28:00;;;;;;;28.80;17.63;;;;;;;4.86;83.18;102105.47;5030386;28;20736;-79
2021/12/19 03:30:25;;;;;;;27.60;17.23;;;;;;;4.86;83.11;102110.84;5028793;28;20417;-79
2021/12/19 03:32:50;;;;;;;28.40;18.50;;;;;;;4.69;83.64;102104.63;5015179;28;20397;-79
2021/12/19 03:35:16;;;;;;;27.38;17.92;;;;;;;4.63;84.42;102110.66;5020921;28;20403;-79
2021/12/19 03:37:43;;;;;;;28.45;17.80;;;;;;;4.71;83.67;102107.97;5026328;28;20920;-79
2021/12/19 03:40:14;;;;;;;27.23;17.83;;;;;;;4.78;83.54;102109.97;5031208;28;20915;-79
2021/12/19 03:42:42;;;;;;;26.85;17.42;;;;;;;4.81;83.20;102113.19;5014915;28;20474;-79
2021/12/19 03:45:10;;;;;;;28.67;18.45;;;;;;;4.84;83.04;102106.66;5022713;28;20465;-79
2021/12/19 03:47:36;;;;;;;25.23;16.77;;;;;;;4.83;83.02;102105.81;5022576;28;20440;-79
2021/12/19 03:50:04;;;;;;;27.27;18.33;;;;;;;4.83;83.31;102099.59;5043677;28;20445;-79
2021/12/19 03:52:29;;;;;;;29.10;19.10;;;;;;;4.80;83.53;102095.41;5014837;28;20503;-79
2021/12/19 03:54:56;;;;;;;32.00;18.60;;;;;;;4.80;83.19;102098.09;5014603;28;20483;-79
2021/12/19 03:57:22;;;;;;;31.20;19.43;;;;;;;4.72;83.80;102092.69;5026169;28;20391;-79
2021/12/19 03:59:48;;;;;;;28.17;17.53;;;;;;;4.63;84.26;102096.41;5017029;28;20421;-79
2021/12/19 04:02:23;;;;;;;35.70;19.70;;;;;;;4.69;84.28;102099.25;5019466;28;20870;-79
2021/12/19 04:04:48;;;;;;;31.67;17.95;;;;;;;4.76;83.67;102090.53;5040924;28;20396;-79
2021/12/19 04:07:14;;;;;;;31.37;18.20;;;;;;;4.75;83.41;102078.09;5025994;28;20870;-79
2021/12/19 04:09:39;;;;;;;27.13;16.60;;;;;;;4.70;83.70;102083.97;5018650;28;20475;-79
2021/12/19 04:12:05;;;;;;;26.67;15.87;;;;;;;4.65;83.99;102081.78;5016100;28;20466;-79
2021/12/19 04:14:30;;;;;;;27.47;16.43;;;;;;;4.67;84.15;102077.09;5021187;28;20402;-79
2021/12/19 04:16:55;;;;;;;29.03;17.37;;;;;;;4.74;83.42;102077.28;5026797;28;20399;-79
2021/12/19 04:19:21;;;;;;;28.07;17.00;;;;;;;4.79;83.30;102071.38;5017965;28;20416;-80
2021/12/19 04:21:46;;;;;;;30.23;18.90;;;;;;;4.80;83.22;102073.06;5017638;28;20415;-79
2021/12/19 04:24:12;;;;;;;30.83;18.48;;;;;;;4.77;83.02;102065.34;5013576;28;20409;-79
2021/12/19 04:26:37;;;;;;;33.20;20.55;;;;;;;4.69;82.91;102067.03;5023700;28;20434;-79
2021/12/19 04:29:02;;;;;;;30.10;18.00;;;;;;;4.65;83.49;102067.50;5020387;28;20476;-79
2021/12/19 04:31:28;;;;;;;32.60;18.60;;;;;;;4.67;82.68;102071.75;5027396;28;20415;-79
2021/12/19 04:33:53;;;;;;;30.47;19.20;;;;;;;4.57;83.31;102056.78;5028785;28;20401;-79
2021/12/19 04:36:26;;;;;;;28.97;17.43;;;;;;;4.52;83.31;102070.69;5013809;28;20822;-79
2021/12/19 04:39:18;;;;;;;29.80;17.50;;;;;;;4.53;82.26;102071.53;5026960;28;20392;-79
2021/12/19 04:51:01;;;;;;;40.47;21.85;;;;;;;4.42;82.25;102051.22;5014181;28;20443;-79
2021/12/19 04:55:20;;;;;;;38.33;22.40;;;;;;;4.43;82.73;102060.13;5011580;28;20409;-80
2021/12/19 04:57:56;;;;;;;36.50;21.10;;;;;;;4.42;82.55;102061.13;5030940;28;20449;-79
2021/12/19 05:00:33;;;;;;;36.10;21.17;;;;;;;4.41;82.48;102057.59;5020887;28;20915;-79
2021/12/19 05:03:08;;;;;;;34.88;21.20;;;;;;;4.36;82.37;102062.63;5027706;28;20389;-79
2021/12/19 05:05:52;;;;;;;36.35;21.63;;;;;;;4.34;82.55;102055.75;5017308;28;20459;-79
2021/12/19 05:14:07;;;;;;;37.17;21.48;;;;;;;4.19;83.22;102055.53;5019178;28;20437;-79
2021/12/19 05:16:34;;;;;;;43.42;23.40;;;;;;;4.17;83.16;102053.03;5017131;28;20392;-79
2021/12/19 05:19:06;;;;;;;37.53;22.63;;;;;;;4.24;83.38;102058.59;5014391;28;20468;-79
2021/12/19 05:21:34;;;;;;;32.93;21.10;;;;;;;4.05;84.20;102057.00;5020977;28;20410;-79
2021/12/19 05:26:25;;;;;;;32.73;19.03;;;;;;;3.73;85.37;102054.22;5016616;28;20401;-79
2021/12/19 05:28:52;;;;;;;30.60;18.63;;;;;;;3.70;86.13;102045.66;5011588;28;20912;-79
2021/12/19 05:31:18;;;;;;;27.75;18.05;;;;;;;3.95;85.53;102040.22;5012664;28;20888;-79
2021/12/19 05:33:45;;;;;;;29.70;17.83;;;;;;;3.92;84.61;102042.41;5024313;28;20391;-79
2021/12/19 05:44:10;;;;;;;28.20;17.50;;;;;;;3.85;85.40;102044.06;5016893;28;20671;-79
2021/12/19 05:47:07;;;;;;;21.70;13.15;;;;;;;4.09;82.93;102053.00;5016534;28;20529;-79
2021/12/19 05:49:34;;;;;;;22.43;14.37;;;;;;;4.04;82.50;102054.50;5012433;28;20416;-79
2021/12/19 05:52:00;;;;;;;21.05;13.60;;;;;;;4.05;82.82;102048.16;5012428;28;20394;-79
2021/12/19 05:54:26;;;;;;;19.43;13.10;;;;;;;3.96;82.85;102041.06;5027660;28;20395;-79
2021/12/19 05:56:51;;;;;;;25.40;14.07;;;;;;;3.92;83.08;102032.50;5017070;28;20409;-79
2021/12/19 05:59:17;;;;;;;25.23;13.43;;;;;;;3.88;83.59;102036.53;5011951;28;20827;-79
2021/12/19 06:01:43;;;;;;;19.60;13.23;;;;;;;3.95;84.02;102034.03;5010560;28;20428;-79
2021/12/19 06:04:09;;;;;;;20.10;12.52;;;;;;;3.99;83.21;102035.38;5017392;28;20416;-79
2021/12/19 06:06:35;;;;;;;18.90;12.63;;;;;;;4.05;82.81;102026.69;5019421;28;20955;-80
2021/12/19 06:09:00;;;;;;;20.03;13.53;;;;;;;4.08;82.72;102021.81;5013243;28;20496;-79
2021/12/19 06:11:25;;;;;;;18.70;12.25;;;;;;;4.11;82.94;102017.97;5023084;28;20411;-80
2021/12/19 06:13:51;;;;;;;19.77;12.40;;;;;;;4.12;82.30;102012.44;5023705;28;20410;-79
2021/12/19 06:16:16;;;;;;;20.30;12.83;;;;;;;4.14;82.53;102007.75;5027341;28;20527;-79
2021/12/19 06:18:42;;;;;;;18.53;13.03;;;;;;;4.13;82.26;101992.66;5020337;28;20414;-79
2021/12/19 06:21:08;;;;;;;19.73;13.30;;;;;;;4.14;82.17;101998.88;5027287;28;20421;-79
2021/12/19 06:23:34;;;;;;;20.17;13.80;;;;;;;4.06;82.94;101983.59;5024350;28;20405;-79
2021/12/19 06:25:59;;;;;;;25.87;14.23;;;;;;;4.01;82.94;101990.47;5019138;28;20433;-79
2021/12/19 06:28:25;;;;;;;20.17;13.50;;;;;;;4.00;82.76;101986.09;5015534;28;20407;-80
2021/12/19 06:30:50;;;;;;;21.80;14.10;;;;;;;3.98;83.11;101986.28;5019872;28;20406;-80
2021/12/19 06:33:16;;;;;;;21.67;14.77;;;;;;;4.03;83.53;101985.75;5024706;28;20396;-79
2021/12/19 06:35:41;;;;;;;27.20;16.98;;;;;;;4.04;83.48;101980.25;5023253;28;20450;-80
2021/12/19 06:38:07;;;;;;;19.83;12.60;;;;;;;4.10;83.88;101987.63;5015543;28;20451;-79
2021/12/19 06:40:33;;;;;;;16.75;12.23;;;;;;;4.11;83.42;101983.09;5021938;28;20440;-80
2021/12/19 06:42:59;;;;;;;17.10;11.90;;;;;;;4.08;82.58;101986.13;5010837;28;20427;-80
2021/12/19 06:45:24;;;;;;;19.70;13.17;;;;;;;3.99;82.23;101987.94;5014912;28;20405;-80
2021/12/19 06:47:50;;;;;;;18.73;13.03;;;;;;;4.01;82.65;101985.09;5011179;28;20455;-80
2021/12/19 06:50:17;;;;;;;20.27;13.43;;;;;;;4.07;82.80;101989.81;5033845;28;20451;-80
2021/12/19 06:52:44;;;;;;;19.08;11.60;;;;;;;4.05;82.94;101984.59;5014175;28;20487;-80
2021/12/19 06:55:11;;;;;;;23.93;13.33;;;;;;;3.98;82.70;101991.66;5013545;28;20385;-80
2021/12/19 06:57:37;;;;;;;20.38;12.52;;;;;;;3.98;82.85;101990.78;5040747;28;20389;-80
2021/12/19 07:00:09;;;;;;;19.13;12.83;;;;;;;4.03;83.28;101989.28;5020565;28;20458;-80
2021/12/19 07:02:34;;;;;;;19.15;11.98;;;;;;;4.04;83.08;101977.56;5018042;28;20462;-80
2021/12/19 07:04:59;;;;;;;18.13;12.67;;;;;;;4.03;83.12;101986.59;5015119;28;20476;-80
2021/12/19 07:07:25;;;;;;;18.13;11.73;;;;;;;4.01;82.91;101988.63;5013338;28;20495;-80
2021/12/19 07:09:50;;;;;;;17.87;12.67;;;;;;;4.00;82.81;101988.78;5011446;28;20473;-80
2021/12/19 07:12:17;;;;;;;17.77;13.00;;;;;;;3.95;82.70;101985.75;5015889;28;20905;-80
2021/12/19 07:14:43;;;;;;;19.60;13.07;;;;;;;4.00;83.19;101983.41;5030287;28;20895;-80
2021/12/19 07:17:09;;;;;;;17.98;12.02;;;;;;;3.98;83.27;101990.78;5017478;28;20514;-85
2021/12/19 07:19:34;;;;;;;19.73;13.27;;;;;;;3.97;83.25;101984.59;5009398;28;20413;-85
2021/12/19 07:22:00;;;;;;;16.70;12.60;;;;;;;4.02;83.22;101984.91;5012949;28;20426;-83
2021/12/19 07:24:25;;;;;;;17.33;12.10;;;;;;;4.02;83.09;101986.75;5011388;28;20483;-84
2021/12/19 07:26:50;;;;;;;18.63;12.77;;;;;;;4.02;82.86;101986.75;5016583;28;20397;-83
2021/12/19 07:29:16;;;;;;;18.93;12.20;;;;;;;4.02;83.11;101976.03;5019276;28;20458;-84
2021/12/19 07:31:42;;;;;;;21.48;13.27;;;;;;;3.99;83.51;101985.25;5018589;28;20412;-85
2021/12/19 07:34:07;;;;;;;21.10;13.65;;;;;;;4.05;83.15;101991.81;5037001;28;20402;-85
2021/12/19 07:36:39;;;;;;;24.67;16.90;;;;;;;4.05;83.37;102002.56;5026027;28;20929;-85
2021/12/19 07:39:10;;;;;;;21.70;13.07;;;;;;;4.06;83.59;101998.84;5028687;28;20435;-88
2021/12/19 07:41:35;;;;;;;19.73;14.18;;;;;;;4.07;83.18;101996.00;5018581;28;20441;-83
2021/12/19 07:44:01;;;;;;;18.40;12.57;;;;;;;4.09;83.62;101999.34;5015167;28;20436;-85
2021/12/19 07:46:26;;;;;;;18.93;12.10;;;;;;;4.05;82.64;101994.50;5021961;28;20859;-86
2021/12/19 07:48:52;;;;;;;21.77;13.13;;;;;;;4.10;82.70;101995.69;5012894;28;20499;-86
2021/12/19 07:51:17;;;;;;;20.77;12.55;;;;;;;4.06;82.98;101990.78;5021979;28;20407;-86
2021/12/19 07:53:42;;;;;;;20.83;13.30;;;;;;;4.07;83.31;101982.59;5020209;28;20407;-83
2021/12/19 07:56:08;;;;;;;19.97;14.20;;;;;;;3.95;83.37;101983.09;5026595;28;20436;-85
2021/12/19 07:58:33;;;;;;;18.13;12.55;;;;;;;3.91;84.49;101984.41;5018298;28;20772;-83
2021/12/19 08:00:58;;;;;;;15.30;11.03;;;;;;;3.98;84.47;101980.06;5020416;28;20425;-84
2021/12/19 08:03:24;;;;;;;14.07;10.77;;;;;;;4.06;83.45;101974.69;5014249;28;20504;-84
2021/12/19 08:05:50;;;;;;;19.27;12.33;;;;;;;4.02;82.65;101987.59;5014441;28;20412;-85
2021/12/19 08:08:25;;;;;;;18.95;11.73;;;;;;;4.01;82.98;101972.53;5014252;28;20828;-84
2021/12/19 08:13:16;;;;;;;16.47;11.57;;;;;;;3.97;83.76;101989.09;5018670;28;20468;-85
2021/12/19 08:15:41;;;;;;;16.13;11.77;;;;;;;4.06;84.03;101980.06;5016002;28;20419;-87
2021/12/19 08:18:07;;;;;;;17.27;11.53;;;;;;;4.13;83.75;101979.25;5019291;28;20403;-86
2021/12/19 08:20:33;;;;;;;16.93;11.23;;;;;;;4.17;82.93;101979.75;5021533;28;20526;-86
2021/12/19 08:22:59;;;;;;;17.25;11.63;;;;;;;4.09;82.52;101975.22;5019546;28;20411;-85
2021/12/19 08:25:26;;;;;;;21.67;12.93;;;;;;;3.96;83.08;101966.81;5031286;28;20755;-88
2021/12/19 08:27:52;;;;;;;20.30;13.15;;;;;;;3.91;83.53;101976.38;5025116;28;20401;-85
2021/12/19 08:30:17;;;;;;;21.23;13.40;;;;;;;3.94;83.82;101981.41;5020091;28;20417;-86
2021/12/19 08:32:43;;;;;;;18.50;12.23;;;;;;;4.00;83.86;101970.84;5015180;28;20409;-86
2021/12/19 08:35:10;;;;;;;20.17;12.47;;;;;;;4.07;83.65;101968.34;5013489;28;20409;-86
2021/12/19 08:37:36;;;;;;;18.10;11.95;;;;;;;4.09;84.09;101972.53;5018303;28;20407;-86
2021/12/19 08:40:06;;;;;;;16.42;10.85;;;;;;;4.11;83.73;101969.69;5024081;28;20970;-86
2021/12/19 08:42:33;;;;;;;18.23;12.10;;;;;;;4.13;83.61;101967.66;5014674;28;20417;-85
2021/12/19 08:45:02;;;;;;;16.27;12.18;;;;;;;4.12;83.37;101964.16;5016955;28;21030;-85
2021/12/19 08:47:28;;;;;;;16.42;12.23;;;;;;;4.18;83.38;101963.47;5013168;28;20436;-87
2021/12/19 08:49:53;;;;;;;16.55;11.65;;;;;;;4.15;83.44;101954.91;5020351;28;20739;-86
2021/12/19 08:52:19;;;;;;;18.03;12.20;;;;;;;4.20;83.73;101955.28;5018477;28;20405;-86
2021/12/19 08:54:44;;;;;;;13.73;11.80;;;;;;;4.17;83.70;101956.44;5012517;28;20425;-86
2021/12/19 08:57:09;;;;;;;15.97;10.77;;;;;;;4.25;84.01;101955.59;5039729;28;20455;-86
2021/12/19 08:59:34;;;;;;;14.87;10.23;;;;;;;4.29;83.39;101956.94;5018599;28;20451;-85
2021/12/19 09:02:01;;;;;;;16.80;10.68;;;;;;;4.31;82.89;101957.63;5017817;28;20405;-87
2021/12/19 09:04:28;;;;;;;14.75;10.52;;;;;;;4.34;82.67;101951.94;5028271;28;20896;-87
2021/12/19 09:06:56;;;;;;;14.50;11.07;;;;;;;4.34;82.69;101951.09;5020260;28;20475;-87
2021/12/19 09:09:22;;;;;;;17.20;12.25;;;;;;;4.15;83.03;101949.56;5018027;28;20412;-87
2021/12/19 09:11:47;;;;;;;18.30;12.03;;;;;;;4.09;83.32;101951.06;5021030;28;20434;-87
2021/12/19 09:14:12;;;;;;;18.87;13.03;;;;;;;4.17;83.80;101940.34;5021790;28;20407;-87
2021/12/19 09:16:38;;;;;;;17.30;11.70;;;;;;;4.21;83.98;101932.81;5018635;28;20443;-87
2021/12/19 09:19:03;;;;;;;17.50;12.00;;;;;;;4.24;83.66;101937.00;5018944;28;20409;-86
2021/12/19 09:21:28;;;;;;;18.57;12.90;;;;;;;4.06;84.09;101940.66;5022674;28;20408;-86
2021/12/19 09:23:54;;;;;;;16.17;11.20;;;;;;;4.11;83.96;101948.22;5020969;28;20516;-87
2021/12/19 09:26:19;;;;;;;16.73;11.77;;;;;;;4.16;83.10;101949.41;5021345;28;20476;-86
2021/12/19 09:28:44;;;;;;;16.17;11.87;;;;;;;4.12;82.96;101950.72;5021631;28;20903;-80
2021/12/19 09:31:10;;;;;;;18.58;12.77;;;;;;;4.13;83.23;101960.47;5023605;28;20424;-81
2021/12/19 09:33:35;;;;;;;19.20;13.27;;;;;;;4.15;83.57;101968.31;5022099;28;20941;-80
2021/12/19 09:36:00;;;;;;;21.07;14.23;;;;;;;4.19;83.51;101959.78;5035956;28;20485;-80
2021/12/19 09:38:27;;;;;;;19.75;13.57;;;;;;;4.18;83.37;101957.28;5016811;28;20408;-79
2021/12/19 09:40:59;;;;;;;18.67;13.52;;;;;;;4.16;83.22;101961.97;5025384;28;20434;-79
2021/12/19 09:43:44;;;;;;;18.30;13.60;;;;;;;4.21;83.21;101956.13;5020697;28;20454;-80
2021/12/19 09:46:15;;;;;;;21.40;15.27;;;;;;;4.29;83.23;101953.41;5014571;28;20412;-80
2021/12/19 09:48:42;;;;;;;18.90;13.98;;;;;;;4.30;83.49;101961.31;5027244;28;20429;-77
2021/12/19 09:51:11;;;;;;;21.23;15.13;;;;;;;4.26;83.23;101951.91;5023246;28;20409;-78
2021/12/19 09:53:38;;;;;;;17.63;13.80;;;;;;;4.31;83.33;101949.59;5019414;28;20428;-78
2021/12/19 09:56:03;;;;;;;18.10;14.77;;;;;;;4.32;83.39;101945.88;5016813;28;20412;-81
2021/12/19 09:58:34;;;;;;;15.15;12.77;;;;;;;4.37;82.93;101948.06;5037929;28;20884;-78
2021/12/19 10:01:01;;;;;;;18.48;14.00;;;;;;;4.37;82.64;101946.22;5019453;28;20431;-79
2021/12/19 10:03:26;;;;;;;18.97;14.43;;;;;;;4.42;82.91;101937.66;5022053;28;20513;-78
2021/12/19 10:06:14;;;;;;;18.67;14.37;;;;;;;4.44;82.58;101935.66;5030326;28;20478;-78
2021/12/19 10:08:40;;;;;;;18.77;13.25;;;;;;;4.46;82.81;101928.25;5019569;28;20383;-78
2021/12/19 10:11:13;;;;;;;16.63;13.65;;;;;;;4.47;82.58;101920.03;5018712;28;20414;-79
2021/12/19 10:13:39;;;;;;;15.02;12.48;;;;;;;4.41;83.48;101920.69;5020759;28;20882;-80
2021/12/19 10:16:25;;;;;;;15.10;12.13;;;;;;;4.49;82.96;101915.34;5021081;28;20464;-79
2021/12/19 10:18:52;;;;;;;16.30;11.90;;;;;;;4.45;82.85;101905.94;5033632;28;20401;-79
2021/12/19 10:21:20;;;;;;;16.92;14.38;;;;;;;4.48;83.06;101902.09;5039418;28;20420;-78
2021/12/19 10:23:45;;;;;;;15.82;11.93;;;;;;;4.39;83.67;101906.63;5025966;28;20404;-78
2021/12/19 10:26:12;;;;;;;20.67;14.50;;;;;;;4.24;83.47;101896.75;5018849;28;20395;-78
2021/12/19 10:28:57;;;;;;;23.10;14.60;;;;;;;4.00;84.77;101897.56;5024203;28;20901;-78
2021/12/19 10:31:25;;;;;;;16.40;12.52;;;;;;;3.98;84.60;101897.75;5023617;28;20473;-78
2021/12/19 10:33:51;;;;;;;15.88;12.18;;;;;;;4.09;85.09;101886.69;5013449;28;20409;-78
2021/12/19 10:36:18;;;;;;;17.50;12.23;;;;;;;4.15;84.34;101891.38;5011316;28;20795;-78
2021/12/19 10:38:46;;;;;;;17.40;12.45;;;;;;;4.23;84.51;101885.16;5031861;28;20827;-79
2021/12/19 10:41:16;;;;;;;14.77;11.27;;;;;;;4.39;83.69;101889.66;5015428;28;20421;-78
2021/12/19 10:43:58;;;;;;;14.52;11.82;;;;;;;4.45;83.00;101875.56;5034410;28;20797;-78
2021/12/19 10:46:33;;;;;;;15.55;12.63;;;;;;;4.46;82.85;101877.25;5022653;28;20487;-78
2021/12/19 10:48:59;;;;;;;22.55;14.07;;;;;;;4.37;83.29;101868.38;5032256;28;20407;-78
2021/12/19 10:51:25;;;;;;;19.65;14.35;;;;;;;4.28;84.24;101871.25;5019692;28;20776;-78
2021/12/19 10:53:54;;;;;;;17.35;13.20;;;;;;;4.38;83.11;101872.72;5021495;28;20395;-78
2021/12/19 10:56:31;;;;;;;19.75;15.50;;;;;;;4.40;83.20;101860.00;5029180;28;20411;-78
2021/12/19 10:58:59;;;;;;;19.42;13.48;;;;;;;4.35;83.93;101864.19;5014938;28;20766;-78
2021/12/19 11:01:34;;;;;;;16.35;12.43;;;;;;;4.41;83.70;101844.72;5016149;28;20421;-78
2021/12/19 11:04:17;;;;;;;15.25;12.20;;;;;;;4.38;82.70;101834.34;5020273;28;20427;-78
2021/12/19 11:06:45;;;;;;;14.80;11.75;;;;;;;4.41;82.50;101834.00;5024059;28;20425;-78
2021/12/19 11:09:21;;;;;;;15.85;13.20;;;;;;;4.19;83.18;101822.94;5020368;28;20403;-78
2021/12/19 11:11:52;;;;;;;13.68;10.70;;;;;;;4.30;82.87;101829.81;5013123;28;20491;-78
2021/12/19 11:14:33;;;;;;;16.10;12.25;;;;;;;4.26;82.28;101830.31;5018698;28;20496;-78
2021/12/19 11:17:02;;;;;;;14.07;11.30;;;;;;;4.34;82.68;101825.78;5017836;28;20787;-78
2021/12/19 11:19:28;;;;;;;13.07;10.80;;;;;;;4.43;82.41;101814.03;5018453;28;20467;-78
2021/12/19 11:21:54;;;;;;;14.48;11.98;;;;;;;4.51;82.18;101811.28;5019397;28;20406;-78
2021/12/19 11:24:22;;;;;;;14.80;12.80;;;;;;;4.30;83.08;101802.97;5017557;28;20952;-77
2021/12/19 11:26:50;;;;;;;15.07;12.45;;;;;;;4.33;83.37;101807.16;5021220;28;20397;-78
2021/12/19 11:29:16;;;;;;;15.52;11.75;;;;;;;4.37;83.46;101792.41;5033180;28;20501;-78
2021/12/19 11:31:50;;;;;;;16.80;13.93;;;;;;;4.42;82.43;101785.50;5028113;28;20478;-78
2021/12/19 11:34:23;;;;;;;15.65;11.98;;;;;;;4.40;82.54;101787.53;5034081;28;20397;-78
2021/12/19 11:36:57;;;;;;;13.35;11.25;;;;;;;4.42;82.33;101784.66;5018879;28;20397;-78
2021/12/19 11:39:29;;;;;;;13.27;10.52;;;;;;;4.39;81.99;101777.78;5016618;28;20880;-78
2021/12/19 11:42:18;;;;;;;11.85;10.43;;;;;;;4.38;82.24;101781.47;5023923;28;20460;-78
2021/12/19 11:44:54;;;;;;;13.88;12.35;;;;;;;4.45;81.78;101774.41;5020106;28;20383;-78
2021/12/19 11:47:48;;;;;;;18.58;14.38;;;;;;;4.41;81.03;101767.72;5032800;28;20865;-78
2021/12/19 11:50:23;;;;;;;17.70;14.95;;;;;;;4.34;82.47;101755.16;5020170;28;20416;-78
2021/12/19 11:52:50;;;;;;;39.45;30.10;;;;;;;4.37;82.59;101761.03;5022118;28;20947;-79
2021/12/19 11:55:23;;;;;;;18.83;15.68;;;;;;;4.42;82.37;101752.44;5019565;28;20455;-78
2021/12/19 11:58:07;;;;;;;16.63;12.63;;;;;;;4.43;81.74;101740.72;5017456;28;20432;-78
2021/12/19 12:00:57;;;;;;;17.58;12.50;;;;;;;4.45;81.60;101747.56;5017420;28;20453;-79
2021/12/19 12:03:30;;;;;;;12.75;10.40;;;;;;;4.51;81.60;101744.19;5007127;28;20907;-78
2021/12/19 12:05:58;;;;;;;12.95;10.52;;;;;;;4.34;82.54;101734.53;5022101;28;20412;-78
2021/12/19 12:08:26;;;;;;;17.20;11.57;;;;;;;4.38;82.55;101730.47;5025851;28;20413;-78
2021/12/19 12:10:59;;;;;;;12.77;10.93;;;;;;;4.45;82.04;101727.94;5017081;28;21615;-78
2021/12/19 12:13:27;;;;;;;19.55;15.48;;;;;;;4.41;82.17;101727.44;5032623;28;20415;-78
2021/12/19 12:16:02;;;;;;;14.98;13.18;;;;;;;4.48;81.52;101720.38;5031237;28;20405;-78
2021/12/19 12:18:30;;;;;;;13.77;12.18;;;;;;;4.42;80.96;101706.81;5015543;28;20400;-78